sensor_id;sensor_type;location;lat;lon;timestamp;temperature;humidity
16674;DHT22;8450;52.654;10.326;2023-03-11T08:06:02;1.30;99.90
16674;DHT22;8450;52.654;10.326;2023-03-11T08:13:47;1.20;99.90
16674;DHT22;8450;52.654;10.326;2023-03-11T08:16:15;1.20;99.90
16674;DHT22;8450;52.654;10.326;2023-03-11T08:18:41;1.20;99.90
16674;DHT22;8450;52.654;10.326;2023-03-11T08:21:10;1.30;99.90
16674;DHT22;8450;52.654;10.326;2023-03-11T08:23:36;1.30;99.90
16674;DHT22;8450;52.654;10.326;2023-03-11T08:26:06;1.40;99.90
16674;DHT22;8450;52.654;10.326;2023-03-11T08:28:33;1.50;99.90
16674;DHT22;8450;52.654;10.326;2023-03-11T08:30:59;1.50;99.90
16674;DHT22;8450;52.654;10.326;2023-03-11T08:33:25;1.60;99.90
16674;DHT22;8450;52.654;10.326;2023-03-11T08:35:50;1.70;99.90
16674;DHT22;8450;52.654;10.326;2023-03-11T08:41:07;1.80;99.90
16674;DHT22;8450;52.654;10.326;2023-03-11T08:43:33;2.00;99.90
16674;DHT22;8450;52.654;10.326;2023-03-11T08:46:00;2.00;99.90
16674;DHT22;8450;52.654;10.326;2023-03-11T08:48:26;2.10;99.90
16674;DHT22;8450;52.654;10.326;2023-03-11T08:50:52;2.20;99.90
16674;DHT22;8450;52.654;10.326;2023-03-11T08:53:18;2.40;99.90
16674;DHT22;8450;52.654;10.326;2023-03-11T08:55:43;2.50;99.90
16674;DHT22;8450;52.654;10.326;2023-03-11T08:58:09;2.70;99.90
16674;DHT22;8450;52.654;10.326;2023-03-11T09:00:34;2.80;99.90
16674;DHT22;8450;52.654;10.326;2023-03-11T09:03:00;2.90;99.90
16674;DHT22;8450;52.654;10.326;2023-03-11T09:05:26;3.00;99.90
16674;DHT22;8450;52.654;10.326;2023-03-11T09:07:51;3.10;99.90
16674;DHT22;8450;52.654;10.326;2023-03-11T09:10:17;3.30;99.90
16674;DHT22;8450;52.654;10.326;2023-03-11T09:12:43;3.40;99.90
16674;DHT22;8450;52.654;10.326;2023-03-11T09:15:09;3.60;99.90
16674;DHT22;8450;52.654;10.326;2023-03-11T09:17:34;3.80;99.90
16674;DHT22;8450;52.654;10.326;2023-03-11T09:20:00;4.10;99.90
16674;DHT22;8450;52.654;10.326;2023-03-11T09:22:26;4.30;99.90
16674;DHT22;8450;52.654;10.326;2023-03-11T09:24:51;4.50;99.90
16674;DHT22;8450;52.654;10.326;2023-03-11T09:27:17;4.80;99.90
16674;DHT22;8450;52.654;10.326;2023-03-11T09:29:43;5.00;99.90
16674;DHT22;8450;52.654;10.326;2023-03-11T09:32:12;5.10;99.90
16674;DHT22;8450;52.654;10.326;2023-03-11T09:34:37;5.30;99.90
16674;DHT22;8450;52.654;10.326;2023-03-11T09:37:03;5.40;99.90
16674;DHT22;8450;52.654;10.326;2023-03-11T09:39:28;5.40;99.90
16674;DHT22;8450;52.654;10.326;2023-03-11T09:42:14;5.40;99.90
16674;DHT22;8450;52.654;10.326;2023-03-11T09:44:44;5.40;99.90
16674;DHT22;8450;52.654;10.326;2023-03-11T09:53:10;5.60;99.90
16674;DHT22;8450;52.654;10.326;2023-03-11T09:58:43;5.90;99.90
16674;DHT22;8450;52.654;10.326;2023-03-11T10:01:15;6.10;99.90
16674;DHT22;8450;52.654;10.326;2023-03-11T10:03:42;6.20;99.90
16674;DHT22;8450;52.654;10.326;2023-03-11T10:06:23;6.30;99.90
16674;DHT22;8450;52.654;10.326;2023-03-11T10:08:59;6.30;99.90
16674;DHT22;8450;52.654;10.326;2023-03-11T10:11:31;6.40;99.90
16674;DHT22;8450;52.654;10.326;2023-03-11T10:14:22;6.40;99.90
16674;DHT22;8450;52.654;10.326;2023-03-11T10:16:57;6.60;99.90
16674;DHT22;8450;52.654;10.326;2023-03-11T10:25:02;6.70;99.90
16674;DHT22;8450;52.654;10.326;2023-03-11T10:27:36;6.70;99.90
16674;DHT22;8450;52.654;10.326;2023-03-11T10:33:45;6.80;99.90
16674;DHT22;8450;52.654;10.326;2023-03-11T10:36:13;6.80;99.90
16674;DHT22;8450;52.654;10.326;2023-03-11T10:38:45;6.70;99.90
16674;DHT22;8450;52.654;10.326;2023-03-11T10:44:18;6.70;99.90
16674;DHT22;8450;52.654;10.326;2023-03-11T10:46:48;6.60;99.90
16674;DHT22;8450;52.654;10.326;2023-03-11T10:49:15;6.60;99.90
16674;DHT22;8450;52.654;10.326;2023-03-11T10:51:45;6.50;99.90
16674;DHT22;8450;52.654;10.326;2023-03-11T10:54:26;6.50;99.90
16674;DHT22;8450;52.654;10.326;2023-03-11T10:57:18;6.50;99.90
16674;DHT22;8450;52.654;10.326;2023-03-11T10:59:51;6.40;99.90
16674;DHT22;8450;52.654;10.326;2023-03-11T11:02:29;6.50;99.90
16674;DHT22;8450;52.654;10.326;2023-03-11T11:07:46;6.60;99.90
16674;DHT22;8450;52.654;10.326;2023-03-11T11:12:57;6.80;99.90
16674;DHT22;8450;52.654;10.326;2023-03-11T11:15:36;6.80;99.90
16674;DHT22;8450;52.654;10.326;2023-03-11T11:20:30;7.00;99.90
16674;DHT22;8450;52.654;10.326;2023-03-11T11:23:03;7.00;99.90
16674;DHT22;8450;52.654;10.326;2023-03-11T11:25:33;7.10;99.90
16674;DHT22;8450;52.654;10.326;2023-03-11T11:28:15;7.20;99.90
16674;DHT22;8450;52.654;10.326;2023-03-11T11:31:21;7.40;99.90
16674;DHT22;8450;52.654;10.326;2023-03-11T11:33:52;7.40;99.90
16674;DHT22;8450;52.654;10.326;2023-03-11T11:36:28;7.50;99.90
16674;DHT22;8450;52.654;10.326;2023-03-11T11:38:55;7.60;99.90
16674;DHT22;8450;52.654;10.326;2023-03-11T11:41:22;7.70;99.90
16674;DHT22;8450;52.654;10.326;2023-03-11T11:43:52;7.80;99.90
16674;DHT22;8450;52.654;10.326;2023-03-11T11:51:45;8.10;99.90
16674;DHT22;8450;52.654;10.326;2023-03-11T11:54:32;8.10;99.90
16674;DHT22;8450;52.654;10.326;2023-03-11T11:57:01;8.30;99.90
16674;DHT22;8450;52.654;10.326;2023-03-11T11:59:34;8.50;99.90
16674;DHT22;8450;52.654;10.326;2023-03-11T12:12:49;8.80;99.90
16674;DHT22;8450;52.654;10.326;2023-03-11T12:15:28;8.80;99.90
16674;DHT22;8450;52.654;10.326;2023-03-11T12:18:00;8.90;99.90
16674;DHT22;8450;52.654;10.326;2023-03-11T12:20:37;8.90;99.90
16674;DHT22;8450;52.654;10.326;2023-03-11T12:23:44;9.00;99.90
16674;DHT22;8450;52.654;10.326;2023-03-11T12:26:21;9.10;99.90
16674;DHT22;8450;52.654;10.326;2023-03-11T12:28:58;9.10;99.90
16674;DHT22;8450;52.654;10.326;2023-03-11T12:31:28;9.10;99.90
16674;DHT22;8450;52.654;10.326;2023-03-11T12:33:58;9.10;99.90
16674;DHT22;8450;52.654;10.326;2023-03-11T12:36:40;9.10;99.90
16674;DHT22;8450;52.654;10.326;2023-03-11T12:39:29;9.20;99.90
16674;DHT22;8450;52.654;10.326;2023-03-11T12:42:37;9.30;99.90
16674;DHT22;8450;52.654;10.326;2023-03-11T12:46:07;9.20;99.90
16674;DHT22;8450;52.654;10.326;2023-03-11T12:50:52;9.00;99.90
16674;DHT22;8450;52.654;10.326;2023-03-11T12:53:19;8.80;99.90
16674;DHT22;8450;52.654;10.326;2023-03-11T12:56:04;8.90;99.90
16674;DHT22;8450;52.654;10.326;2023-03-11T12:58:57;8.90;99.90
16674;DHT22;8450;52.654;10.326;2023-03-11T13:01:32;8.80;99.90
16674;DHT22;8450;52.654;10.326;2023-03-11T13:12:41;8.90;99.90
16674;DHT22;8450;52.654;10.326;2023-03-11T13:18:14;8.70;99.90
16674;DHT22;8450;52.654;10.326;2023-03-11T13:25:43;8.60;99.90
16674;DHT22;8450;52.654;10.326;2023-03-11T13:31:37;8.60;99.90
16674;DHT22;8450;52.654;10.326;2023-03-11T13:42:41;8.60;99.90
16674;DHT22;8450;52.654;10.326;2023-03-11T13:45:32;8.60;99.90
16674;DHT22;8450;52.654;10.326;2023-03-11T13:48:13;8.60;99.90
16674;DHT22;8450;52.654;10.326;2023-03-11T13:50:43;8.60;99.90
16674;DHT22;8450;52.654;10.326;2023-03-11T13:56:35;8.70;99.90
16674;DHT22;8450;52.654;10.326;2023-03-11T13:59:24;8.70;99.90
16674;DHT22;8450;52.654;10.326;2023-03-11T14:01:59;8.60;99.90
16674;DHT22;8450;52.654;10.326;2023-03-11T14:04:32;8.60;99.90
16674;DHT22;8450;52.654;10.326;2023-03-11T14:07:18;8.50;99.90
16674;DHT22;8450;52.654;10.326;2023-03-11T14:09:45;8.50;99.90
16674;DHT22;8450;52.654;10.326;2023-03-11T14:12:11;8.50;99.90
16674;DHT22;8450;52.654;10.326;2023-03-11T14:14:44;8.50;99.90
16674;DHT22;8450;52.654;10.326;2023-03-11T14:17:16;8.50;99.90
16674;DHT22;8450;52.654;10.326;2023-03-11T14:19:42;8.60;99.90
16674;DHT22;8450;52.654;10.326;2023-03-11T14:22:09;8.50;99.90
16674;DHT22;8450;52.654;10.326;2023-03-11T14:24:35;8.60;99.90
16674;DHT22;8450;52.654;10.326;2023-03-11T14:27:05;8.60;99.90
16674;DHT22;8450;52.654;10.326;2023-03-11T14:29:37;8.70;99.90
16674;DHT22;8450;52.654;10.326;2023-03-11T14:32:24;8.70;99.90
16674;DHT22;8450;52.654;10.326;2023-03-11T14:34:50;8.70;99.90
16674;DHT22;8450;52.654;10.326;2023-03-11T14:39:58;8.70;99.90
16674;DHT22;8450;52.654;10.326;2023-03-11T14:42:28;8.70;99.90
16674;DHT22;8450;52.654;10.326;2023-03-11T14:45:15;8.60;99.90
16674;DHT22;8450;52.654;10.326;2023-03-11T14:48:21;8.50;99.90
16674;DHT22;8450;52.654;10.326;2023-03-11T14:50:49;8.30;99.90
16674;DHT22;8450;52.654;10.326;2023-03-11T14:53:20;8.20;99.90
16674;DHT22;8450;52.654;10.326;2023-03-11T14:55:57;8.10;99.90
16674;DHT22;8450;52.654;10.326;2023-03-11T15:01:16;8.00;99.90
16674;DHT22;8450;52.654;10.326;2023-03-11T15:03:50;7.90;99.90
16674;DHT22;8450;52.654;10.326;2023-03-11T15:06:26;7.80;99.90
16674;DHT22;8450;52.654;10.326;2023-03-11T15:09:01;7.80;99.90
16674;DHT22;8450;52.654;10.326;2023-03-11T15:11:29;7.80;99.90
16674;DHT22;8450;52.654;10.326;2023-03-11T15:14:23;7.70;99.90
16674;DHT22;8450;52.654;10.326;2023-03-11T15:16:49;7.70;99.90
16674;DHT22;8450;52.654;10.326;2023-03-11T15:21:52;7.60;99.90
16674;DHT22;8450;52.654;10.326;2023-03-11T15:24:21;7.60;99.90
16674;DHT22;8450;52.654;10.326;2023-03-11T15:27:00;7.60;99.90
16674;DHT22;8450;52.654;10.326;2023-03-11T15:29:28;7.60;99.90
16674;DHT22;8450;52.654;10.326;2023-03-11T15:31:54;7.60;99.90
16674;DHT22;8450;52.654;10.326;2023-03-11T15:39:24;7.40;99.90
16674;DHT22;8450;52.654;10.326;2023-03-11T15:42:02;7.40;99.90
16674;DHT22;8450;52.654;10.326;2023-03-11T15:44:37;7.30;99.90
16674;DHT22;8450;52.654;10.326;2023-03-11T15:47:21;7.20;99.90
16674;DHT22;8450;52.654;10.326;2023-03-11T15:49:48;7.10;99.90
16674;DHT22;8450;52.654;10.326;2023-03-11T15:52:14;7.10;99.90
16674;DHT22;8450;52.654;10.326;2023-03-11T15:54:40;7.00;99.90
16674;DHT22;8450;52.654;10.326;2023-03-11T15:57:08;6.90;99.90
16674;DHT22;8450;52.654;10.326;2023-03-11T15:59:35;6.90;99.90
16674;DHT22;8450;52.654;10.326;2023-03-11T16:02:01;6.90;99.90
16674;DHT22;8450;52.654;10.326;2023-03-11T16:04:27;6.80;99.90
16674;DHT22;8450;52.654;10.326;2023-03-11T16:06:53;6.70;99.90
16674;DHT22;8450;52.654;10.326;2023-03-11T16:09:19;6.70;99.90
16674;DHT22;8450;52.654;10.326;2023-03-11T16:11:45;6.60;99.90
16674;DHT22;8450;52.654;10.326;2023-03-11T16:14:16;6.50;99.90
16674;DHT22;8450;52.654;10.326;2023-03-11T16:16:43;6.40;99.90
16674;DHT22;8450;52.654;10.326;2023-03-11T16:19:09;6.40;99.90
16674;DHT22;8450;52.654;10.326;2023-03-11T16:21:41;6.20;99.90
16674;DHT22;8450;52.654;10.326;2023-03-11T16:24:07;6.20;99.90
16674;DHT22;8450;52.654;10.326;2023-03-11T16:26:37;6.10;99.90
16674;DHT22;8450;52.654;10.326;2023-03-11T16:29:02;6.10;99.90
16674;DHT22;8450;52.654;10.326;2023-03-11T16:31:28;6.00;99.90
16674;DHT22;8450;52.654;10.326;2023-03-11T16:33:54;5.90;99.90
16674;DHT22;8450;52.654;10.326;2023-03-11T16:36:19;5.90;99.90
16674;DHT22;8450;52.654;10.326;2023-03-11T16:38:48;5.80;99.90
16674;DHT22;8450;52.654;10.326;2023-03-11T16:41:14;5.70;99.90
16674;DHT22;8450;52.654;10.326;2023-03-11T16:43:39;5.70;99.90
16674;DHT22;8450;52.654;10.326;2023-03-11T16:46:05;5.60;99.90
16674;DHT22;8450;52.654;10.326;2023-03-11T16:48:31;5.50;99.90
16674;DHT22;8450;52.654;10.326;2023-03-11T16:50:56;5.50;99.90
